createdAt,value
2017-07-16T00:01:19.887Z,11.90
2017-07-16T00:03:47.376Z,11.90
2017-07-16T00:06:14.869Z,11.90
2017-07-16T00:08:42.349Z,11.90
2017-07-16T00:11:09.844Z,12.10
2017-07-16T00:13:37.325Z,12.30
2017-07-16T00:16:05.571Z,12.10
2017-07-16T00:18:33.064Z,12.10
2017-07-16T00:21:00.541Z,12.10
2017-07-16T00:23:28.020Z,12.10
2017-07-16T00:25:55.523Z,12.10
2017-07-16T00:28:23.766Z,12.10
2017-07-16T00:30:51.277Z,12.00
2017-07-16T00:33:18.775Z,12.00
2017-07-16T00:35:46.255Z,12.00
2017-07-16T00:38:13.725Z,12.00
2017-07-16T00:40:42.001Z,12.00
2017-07-16T00:43:09.480Z,11.90
2017-07-16T00:45:37.739Z,11.90
2017-07-16T00:48:05.998Z,11.80
2017-07-16T00:50:33.479Z,11.80
2017-07-16T00:53:01.733Z,11.70
2017-07-16T00:55:29.221Z,11.70
2017-07-16T00:57:57.481Z,11.60
2017-07-16T01:00:24.962Z,11.60
2017-07-16T01:02:52.553Z,11.50
2017-07-16T01:05:20.050Z,11.50
2017-07-16T01:07:47.555Z,11.40
2017-07-16T01:10:15.029Z,11.40
2017-07-16T01:12:42.519Z,11.30
2017-07-16T01:15:10.013Z,11.30
2017-07-16T01:17:38.262Z,11.20
2017-07-16T01:20:05.759Z,11.20
2017-07-16T01:22:33.241Z,11.20
2017-07-16T01:25:00.733Z,11.20
2017-07-16T01:27:28.206Z,11.20
2017-07-16T01:29:56.495Z,11.10
2017-07-16T01:32:24.738Z,11.10
2017-07-16T01:34:52.233Z,11.10
2017-07-16T01:37:20.499Z,11.00
2017-07-16T01:39:48.759Z,11.00
2017-07-16T01:42:16.272Z,11.00
2017-07-16T01:44:43.745Z,10.90
2017-07-16T01:47:11.232Z,10.90
2017-07-16T01:49:38.721Z,10.90
2017-07-16T01:52:06.194Z,10.90
2017-07-16T01:54:33.660Z,11.00
2017-07-16T01:57:01.161Z,11.00
2017-07-16T01:59:28.637Z,11.10
2017-07-16T02:01:56.957Z,11.20
2017-07-16T02:04:24.433Z,11.20
2017-07-16T02:06:51.935Z,11.30
2017-07-16T02:09:20.261Z,11.30
2017-07-16T02:11:47.735Z,11.30
2017-07-16T02:14:15.226Z,11.40
2017-07-16T02:16:43.465Z,11.40
2017-07-16T02:19:10.957Z,11.40
2017-07-16T02:21:39.199Z,11.40
2017-07-16T02:24:06.669Z,11.40
2017-07-16T02:26:34.161Z,11.50
2017-07-16T02:29:02.399Z,11.50
2017-07-16T02:31:29.894Z,11.50
2017-07-16T02:33:58.136Z,11.60
2017-07-16T02:36:25.636Z,11.50
2017-07-16T02:38:53.111Z,11.60
2017-07-16T02:41:20.605Z,11.50
2017-07-16T02:43:48.104Z,11.50
2017-07-16T02:46:16.500Z,11.50
2017-07-16T02:48:43.990Z,11.40
2017-07-16T02:51:11.469Z,11.50
2017-07-16T02:53:38.967Z,11.40
2017-07-16T02:56:06.452Z,11.40
2017-07-16T02:58:33.957Z,11.50
2017-07-16T03:01:01.431Z,11.40
2017-07-16T03:03:29.673Z,11.50
2017-07-16T03:05:57.180Z,11.50
2017-07-16T03:08:24.677Z,11.50
2017-07-16T03:10:52.181Z,11.50
2017-07-16T03:13:20.469Z,11.40
2017-07-16T03:15:47.948Z,11.40
2017-07-16T03:18:15.498Z,11.40
2017-07-16T03:20:42.979Z,11.40
2017-07-16T03:23:11.293Z,11.40
2017-07-16T03:25:38.758Z,11.40
2017-07-16T03:28:07.020Z,11.40
2017-07-16T03:30:34.541Z,11.40
2017-07-16T03:33:02.016Z,11.50
2017-07-16T03:35:29.518Z,11.50
2017-07-16T03:37:57.789Z,11.50
2017-07-16T03:40:26.050Z,11.50
2017-07-16T03:42:53.526Z,11.50
2017-07-16T03:45:21.781Z,11.50
2017-07-16T03:47:49.297Z,11.50
2017-07-16T03:50:16.765Z,11.50
2017-07-16T03:52:44.269Z,11.50
2017-07-16T03:55:12.541Z,11.50
2017-07-16T03:57:40.787Z,11.50
2017-07-16T04:00:08.282Z,11.50
2017-07-16T04:02:36.556Z,11.60
2017-07-16T04:05:04.798Z,11.60
2017-07-16T04:07:32.306Z,11.60
2017-07-16T04:09:59.786Z,11.60
2017-07-16T04:12:27.274Z,11.70
2017-07-16T04:14:54.758Z,11.80
2017-07-16T04:17:23.005Z,12.00
2017-07-16T04:19:50.541Z,12.00
2017-07-16T04:22:18.015Z,12.10
2017-07-16T04:24:45.661Z,12.20
2017-07-16T04:27:13.135Z,12.30
2017-07-16T04:29:40.629Z,12.30
2017-07-16T04:32:08.902Z,12.60
2017-07-16T04:34:36.377Z,12.60
2017-07-16T04:37:04.646Z,12.60
2017-07-16T04:39:32.918Z,12.60
2017-07-16T04:42:00.409Z,12.60
2017-07-16T04:44:27.919Z,12.70
2017-07-16T04:46:55.404Z,12.70
2017-07-16T04:49:23.670Z,12.80
2017-07-16T04:51:51.921Z,13.00
2017-07-16T04:54:19.426Z,12.90
2017-07-16T04:56:46.909Z,13.00
2017-07-16T04:59:14.386Z,13.00
2017-07-16T05:01:41.889Z,13.10
2017-07-16T05:04:10.137Z,13.50
2017-07-16T05:06:38.464Z,13.50
2017-07-16T05:09:05.936Z,13.80
2017-07-16T05:11:33.440Z,13.70
2017-07-16T05:14:01.701Z,14.10
2017-07-16T05:16:29.185Z,14.10
2017-07-16T05:18:57.451Z,14.20
2017-07-16T05:21:25.723Z,14.40
2017-07-16T05:23:53.996Z,14.40
2017-07-16T05:26:22.305Z,14.30
2017-07-16T05:28:50.590Z,14.60
2017-07-16T05:31:18.073Z,14.50
2017-07-16T05:33:45.549Z,14.70
2017-07-16T05:36:13.046Z,15.20
2017-07-16T05:38:41.300Z,15.30
2017-07-16T05:41:08.794Z,15.30
2017-07-16T05:43:36.269Z,15.30
2017-07-16T05:46:03.779Z,15.40
2017-07-16T05:48:31.267Z,15.40
2017-07-16T05:50:59.509Z,15.70
2017-07-16T05:53:27.036Z,15.70
2017-07-16T05:55:54.509Z,15.80
2017-07-16T05:58:22.019Z,15.70
2017-07-16T06:00:50.253Z,16.00
2017-07-16T06:03:17.726Z,16.00
2017-07-16T06:05:45.239Z,15.80
2017-07-16T06:08:12.719Z,15.60
2017-07-16T06:10:40.289Z,15.70
2017-07-16T06:13:07.829Z,15.70
2017-07-16T06:15:35.349Z,15.80
2017-07-16T06:18:03.584Z,16.00
2017-07-16T06:20:31.080Z,15.90
2017-07-16T06:22:59.338Z,16.50
2017-07-16T06:25:27.632Z,16.70
2017-07-16T06:27:55.145Z,16.70
2017-07-16T06:30:23.413Z,16.80
2017-07-16T06:32:50.889Z,16.80
2017-07-16T06:35:18.398Z,16.70
2017-07-16T06:37:45.873Z,16.50
2017-07-16T06:40:13.368Z,16.80
2017-07-16T06:42:40.957Z,16.90
2017-07-16T06:45:09.230Z,17.10
2017-07-16T06:47:37.488Z,17.20
2017-07-16T06:50:05.001Z,17.10
2017-07-16T06:52:32.476Z,17.50
2017-07-16T06:54:59.974Z,17.70
2017-07-16T06:57:28.213Z,18.60
2017-07-16T06:59:55.854Z,18.50
2017-07-16T07:02:23.330Z,19.20
2017-07-16T07:04:50.816Z,19.50
2017-07-16T07:07:18.323Z,19.90
2017-07-16T07:09:45.803Z,20.40
2017-07-16T07:12:13.272Z,20.50
2017-07-16T07:14:40.770Z,19.70
2017-07-16T07:17:09.021Z,20.60
2017-07-16T07:19:36.521Z,20.60
2017-07-16T07:22:04.008Z,21.90
2017-07-16T07:24:31.508Z,22.90
2017-07-16T07:26:58.984Z,23.20
2017-07-16T07:29:27.226Z,23.00
2017-07-16T07:31:56.529Z,22.90
2017-07-16T07:34:24.017Z,22.90
2017-07-16T07:36:51.510Z,22.60
2017-07-16T07:39:19.772Z,22.70
2017-07-16T07:41:47.275Z,22.70
2017-07-16T07:44:14.762Z,22.20
2017-07-16T07:46:42.342Z,21.60
2017-07-16T07:49:09.825Z,22.10
2017-07-16T07:51:38.140Z,21.10
2017-07-16T07:54:05.675Z,21.10
2017-07-16T07:56:33.198Z,21.40
2017-07-16T07:59:00.709Z,21.90
2017-07-16T08:01:28.384Z,21.90
2017-07-16T08:03:55.868Z,22.00
2017-07-16T08:06:24.155Z,23.10
2017-07-16T08:08:51.671Z,23.10
2017-07-16T08:11:19.155Z,23.80
2017-07-16T08:13:46.652Z,24.30
2017-07-16T08:16:14.923Z,26.40
2017-07-16T08:18:43.170Z,26.30
2017-07-16T08:21:10.672Z,26.30
2017-07-16T08:23:38.157Z,25.70
2017-07-16T08:26:05.661Z,25.80
2017-07-16T08:28:33.928Z,27.20
2017-07-16T08:31:01.406Z,27.10
2017-07-16T08:33:29.649Z,26.00
2017-07-16T08:35:57.149Z,26.00
2017-07-16T08:38:25.387Z,25.20
2017-07-16T08:40:52.870Z,25.20
2017-07-16T08:43:21.142Z,24.00
2017-07-16T08:45:48.626Z,24.00
2017-07-16T08:48:16.167Z,24.10
2017-07-16T08:50:44.486Z,24.30
2017-07-16T08:53:11.956Z,24.30
2017-07-16T08:55:39.457Z,24.10
2017-07-16T08:58:07.712Z,24.50
2017-07-16T09:00:35.202Z,24.50
2017-07-16T09:03:03.444Z,25.00
2017-07-16T09:05:30.972Z,25.00
2017-07-16T09:07:58.448Z,25.60
2017-07-16T09:10:25.961Z,26.60
2017-07-16T09:12:54.243Z,27.00
2017-07-16T09:15:22.498Z,27.20
2017-07-16T09:17:50.002Z,27.10
2017-07-16T09:20:17.497Z,27.00
2017-07-16T09:22:45.003Z,27.70
2017-07-16T09:25:13.251Z,29.80
2017-07-16T09:27:40.785Z,29.70
2017-07-16T09:30:08.289Z,29.80
2017-07-16T09:32:36.533Z,31.30
2017-07-16T09:35:04.064Z,31.30
2017-07-16T09:37:31.544Z,30.40
2017-07-16T09:39:59.006Z,30.30
2017-07-16T09:42:26.535Z,28.90
2017-07-16T09:44:54.025Z,29.50
2017-07-16T09:47:21.539Z,31.20
2017-07-16T09:49:49.062Z,32.90
2017-07-16T09:52:16.605Z,33.50
2017-07-16T09:54:44.075Z,33.10
2017-07-16T09:57:11.595Z,32.90
2017-07-16T09:59:39.854Z,32.00
2017-07-16T10:02:07.325Z,32.00
2017-07-16T10:04:35.646Z,31.90
2017-07-16T10:07:03.165Z,31.80
2017-07-16T10:09:31.436Z,30.70
2017-07-16T10:11:58.930Z,30.70
2017-07-16T10:14:26.404Z,32.00
2017-07-16T10:16:53.914Z,32.20
2017-07-16T10:19:21.388Z,34.30
2017-07-16T10:21:48.905Z,34.10
2017-07-16T10:24:16.382Z,35.00
2017-07-16T10:26:43.885Z,35.10
2017-07-16T10:29:12.145Z,33.40
2017-07-16T10:31:39.653Z,33.30
2017-07-16T10:34:07.142Z,33.80
2017-07-16T10:36:34.627Z,34.50
2017-07-16T10:39:02.894Z,34.30
2017-07-16T10:41:30.378Z,34.30
2017-07-16T10:43:57.883Z,34.50
2017-07-16T10:46:25.366Z,33.00
2017-07-16T10:48:52.844Z,34.40
2017-07-16T10:51:21.116Z,34.90
2017-07-16T10:53:49.362Z,35.40
2017-07-16T10:56:16.855Z,35.40
2017-07-16T10:58:44.355Z,36.20
2017-07-16T11:01:11.858Z,35.40
2017-07-16T11:03:39.333Z,34.40
2017-07-16T11:06:06.811Z,34.60
2017-07-16T11:08:34.318Z,34.30
2017-07-16T11:11:01.794Z,35.10
2017-07-16T11:13:29.414Z,34.00
2017-07-16T11:15:56.901Z,32.20
2017-07-16T11:18:24.409Z,31.40
2017-07-16T11:20:51.911Z,30.90
2017-07-16T11:23:19.421Z,30.10
2017-07-16T11:25:46.973Z,29.90
2017-07-16T11:28:15.214Z,28.90
2017-07-16T11:30:42.694Z,28.80
2017-07-16T11:33:10.968Z,28.80
2017-07-16T11:35:39.221Z,29.20
2017-07-16T11:38:06.722Z,29.10
2017-07-16T11:40:34.195Z,29.20
2017-07-16T11:43:01.698Z,29.20
2017-07-16T11:45:29.179Z,28.90
2017-07-16T11:47:56.647Z,28.60
2017-07-16T11:50:24.924Z,28.00
2017-07-16T11:52:53.190Z,27.40
2017-07-16T11:55:20.702Z,27.40
2017-07-16T11:57:48.197Z,27.20
2017-07-16T12:00:15.727Z,26.90
2017-07-16T12:02:43.278Z,26.30
2017-07-16T12:05:10.953Z,26.20
2017-07-16T12:07:38.445Z,27.20
2017-07-16T12:10:05.965Z,27.60
2017-07-16T12:12:33.469Z,27.70
2017-07-16T12:15:00.965Z,28.00
2017-07-16T12:17:28.449Z,27.80
2017-07-16T12:19:56.727Z,27.10
2017-07-16T12:22:24.989Z,27.80
2017-07-16T12:24:52.454Z,27.70
2017-07-16T12:27:20.748Z,27.10
2017-07-16T12:29:48.989Z,26.80
2017-07-16T12:32:16.482Z,26.80
2017-07-16T12:34:44.755Z,27.40
2017-07-16T12:37:12.993Z,27.20
2017-07-16T12:39:40.517Z,27.10
2017-07-16T12:42:08.009Z,26.90
2017-07-16T12:44:35.493Z,26.90
2017-07-16T12:47:04.636Z,26.70
2017-07-16T12:49:32.860Z,26.70
2017-07-16T12:52:02.235Z,26.90
2017-07-16T12:54:30.273Z,26.90
2017-07-16T12:56:58.221Z,26.60
2017-07-16T12:59:26.634Z,26.50
2017-07-16T13:01:54.130Z,26.80
2017-07-16T13:04:22.390Z,27.30
2017-07-16T13:06:49.899Z,27.30
2017-07-16T13:09:17.408Z,27.20
2017-07-16T13:11:44.886Z,26.70
2017-07-16T13:14:13.138Z,26.80
2017-07-16T13:16:40.653Z,26.80
2017-07-16T13:19:08.475Z,26.90
2017-07-16T13:21:36.746Z,26.30
2017-07-16T13:24:04.246Z,26.30
2017-07-16T13:26:31.717Z,25.70
2017-07-16T13:28:59.234Z,26.30
2017-07-16T13:31:26.725Z,26.80
2017-07-16T13:33:54.227Z,26.80
2017-07-16T13:36:21.714Z,26.70
2017-07-16T13:38:49.981Z,26.30
2017-07-16T13:41:17.472Z,26.30
2017-07-16T13:43:44.966Z,25.90
2017-07-16T13:46:13.873Z,25.70
2017-07-16T13:48:41.353Z,26.20
2017-07-16T13:51:08.848Z,26.20
2017-07-16T13:53:36.335Z,26.20
2017-07-16T13:56:03.837Z,26.80
2017-07-16T13:58:32.096Z,26.70
2017-07-16T14:00:59.580Z,26.70
2017-07-16T14:03:27.846Z,26.90
2017-07-16T14:05:56.100Z,27.30
2017-07-16T14:08:23.570Z,27.20
2017-07-16T14:10:51.079Z,27.60
2017-07-16T14:13:18.553Z,27.10
2017-07-16T14:15:46.054Z,26.50
2017-07-16T14:18:14.354Z,26.10
2017-07-16T14:20:41.856Z,26.00
2017-07-16T14:23:09.359Z,26.40
2017-07-16T14:25:37.641Z,26.80
2017-07-16T14:28:05.930Z,26.40
2017-07-16T14:30:33.403Z,26.40
2017-07-16T14:33:00.916Z,26.30
2017-07-16T14:35:28.419Z,26.00
2017-07-16T14:37:55.924Z,25.90
2017-07-16T14:40:23.418Z,25.20
2017-07-16T14:42:50.913Z,25.50
2017-07-16T14:45:18.390Z,25.70
2017-07-16T14:47:45.913Z,25.50
2017-07-16T14:50:13.419Z,25.70
2017-07-16T14:52:40.914Z,25.80
2017-07-16T14:55:08.417Z,25.80
2017-07-16T14:57:35.910Z,25.40
2017-07-16T15:00:04.183Z,26.10
2017-07-16T15:02:32.602Z,26.00
2017-07-16T15:05:00.177Z,26.00
2017-07-16T15:07:27.670Z,26.00
2017-07-16T15:09:55.146Z,26.10
2017-07-16T15:12:23.406Z,26.30
2017-07-16T15:14:50.923Z,26.30
2017-07-16T15:17:18.385Z,26.20
2017-07-16T15:19:45.894Z,26.30
2017-07-16T15:22:14.145Z,26.30
2017-07-16T15:24:41.687Z,26.30
2017-07-16T15:27:09.187Z,26.40
2017-07-16T15:29:36.701Z,26.40
2017-07-16T15:32:04.186Z,26.10
2017-07-16T15:34:31.678Z,26.10
2017-07-16T15:36:59.997Z,25.40
2017-07-16T15:39:27.476Z,25.40
2017-07-16T15:41:54.973Z,25.30
2017-07-16T15:44:23.307Z,25.60
2017-07-16T15:46:50.816Z,25.50
2017-07-16T15:49:19.281Z,25.80
2017-07-16T15:51:47.588Z,25.50
2017-07-16T15:54:15.415Z,25.50
2017-07-16T15:56:43.843Z,25.70
2017-07-16T15:59:11.347Z,25.70
2017-07-16T16:01:38.853Z,25.50
2017-07-16T16:04:06.379Z,25.40
2017-07-16T16:06:33.894Z,25.30
2017-07-16T16:09:01.401Z,25.40
2017-07-16T16:11:28.916Z,25.70
2017-07-16T16:13:56.430Z,25.70
2017-07-16T16:16:24.725Z,25.80
2017-07-16T16:18:52.233Z,25.70
2017-07-16T16:21:19.717Z,25.60
2017-07-16T16:23:47.964Z,25.50
2017-07-16T16:26:15.458Z,25.50
2017-07-16T16:28:43.701Z,25.50
2017-07-16T16:31:11.204Z,25.50
2017-07-16T16:33:38.701Z,25.60
2017-07-16T16:36:06.206Z,25.60
2017-07-16T16:38:34.472Z,25.30
2017-07-16T16:41:01.962Z,25.30
2017-07-16T16:43:29.849Z,25.20
2017-07-16T16:45:57.331Z,25.20
2017-07-16T16:48:24.802Z,25.20
2017-07-16T16:50:52.297Z,25.10
2017-07-16T16:53:20.711Z,24.90
2017-07-16T16:55:48.217Z,24.80
2017-07-16T16:58:16.521Z,24.40
2017-07-16T17:00:44.023Z,24.30
2017-07-16T17:03:11.519Z,24.20
2017-07-16T17:05:39.760Z,23.90
2017-07-16T17:08:07.284Z,23.90
2017-07-16T17:10:34.761Z,23.80
2017-07-16T17:13:02.454Z,23.80
2017-07-16T17:15:29.931Z,23.80
2017-07-16T17:17:58.192Z,23.60
2017-07-16T17:20:25.718Z,23.60
2017-07-16T17:22:53.193Z,23.60
2017-07-16T17:25:20.694Z,23.50
2017-07-16T17:27:48.921Z,23.40
2017-07-16T17:30:16.422Z,23.30
2017-07-16T17:32:44.859Z,23.40
2017-07-16T17:35:12.335Z,23.30
2017-07-16T17:37:39.847Z,23.20
2017-07-16T17:40:07.313Z,23.10
2017-07-16T17:42:34.788Z,23.00
2017-07-16T17:45:02.305Z,22.90
2017-07-16T17:47:29.786Z,22.80
2017-07-16T17:49:57.294Z,22.80
2017-07-16T17:52:24.775Z,22.70
2017-07-16T17:54:52.279Z,22.70
2017-07-16T17:57:19.775Z,22.60
2017-07-16T17:59:48.054Z,22.50
2017-07-16T18:02:16.309Z,22.60
2017-07-16T18:04:43.791Z,22.60
2017-07-16T18:07:12.046Z,22.30
2017-07-16T18:09:39.519Z,22.30
2017-07-16T18:12:07.785Z,22.30
2017-07-16T18:14:35.262Z,22.30
2017-07-16T18:17:03.557Z,22.20
2017-07-16T18:19:31.057Z,22.10
2017-07-16T18:21:58.585Z,22.00
2017-07-16T18:24:26.129Z,21.90
2017-07-16T18:26:53.610Z,21.90
2017-07-16T18:29:21.088Z,21.70
2017-07-16T18:31:48.954Z,21.60
2017-07-16T18:34:16.636Z,21.50
2017-07-16T18:36:44.176Z,21.40
2017-07-16T18:39:11.752Z,21.40
2017-07-16T18:41:39.241Z,21.40
2017-07-16T18:44:06.812Z,21.30
2017-07-16T18:46:34.327Z,21.20
2017-07-16T18:49:01.840Z,21.10
2017-07-16T18:51:29.322Z,21.10
2017-07-16T18:53:56.881Z,21.00
2017-07-16T18:56:24.384Z,20.90
2017-07-16T18:58:52.645Z,20.80
2017-07-16T19:01:20.166Z,20.70
2017-07-16T19:03:47.714Z,20.70
2017-07-16T19:06:15.212Z,20.70
2017-07-16T19:08:42.769Z,20.60
2017-07-16T19:11:10.317Z,20.60
2017-07-16T19:13:37.931Z,20.50
2017-07-16T19:16:05.470Z,20.40
2017-07-16T19:18:33.836Z,20.30
2017-07-16T19:21:01.697Z,20.30
2017-07-16T19:23:30.013Z,20.10
2017-07-16T19:25:57.615Z,20.10
2017-07-16T19:28:25.217Z,20.00
2017-07-16T19:30:53.553Z,19.80
2017-07-16T19:33:21.135Z,19.80
2017-07-16T19:35:48.751Z,19.70
2017-07-16T19:38:16.534Z,19.60
2017-07-16T19:40:44.212Z,19.60
2017-07-16T19:43:12.706Z,19.40
2017-07-16T19:45:41.027Z,19.40
2017-07-16T19:48:08.584Z,19.30
2017-07-16T19:50:36.130Z,19.30
2017-07-16T19:53:04.690Z,19.20
2017-07-16T19:55:32.253Z,19.20
2017-07-16T19:57:59.807Z,19.10
2017-07-16T20:00:27.384Z,19.10
2017-07-16T20:02:55.728Z,19.00
2017-07-16T20:05:23.326Z,18.90
2017-07-16T20:07:51.752Z,18.80
2017-07-16T20:10:19.310Z,18.80
2017-07-16T20:12:46.841Z,18.70
2017-07-16T20:15:15.150Z,18.60
2017-07-16T20:17:42.707Z,18.60
2017-07-16T20:20:10.188Z,18.50
2017-07-16T20:22:37.662Z,18.50
2017-07-16T20:25:05.160Z,18.50
2017-07-16T20:27:32.647Z,18.40
2017-07-16T20:30:00.172Z,18.40
2017-07-16T20:32:27.661Z,18.30
2017-07-16T20:34:55.141Z,18.30
2017-07-16T20:37:22.657Z,18.20
2017-07-16T20:39:50.143Z,18.20
2017-07-16T20:42:17.691Z,18.20
2017-07-16T20:44:45.162Z,18.20
2017-07-16T20:47:12.675Z,18.10
2017-07-16T20:49:40.917Z,18.10
2017-07-16T20:52:08.446Z,18.00
2017-07-16T20:54:35.959Z,18.00
2017-07-16T20:57:04.209Z,17.90
2017-07-16T20:59:31.737Z,17.90
2017-07-16T21:01:59.212Z,17.80
2017-07-16T21:04:26.732Z,17.80
2017-07-16T21:06:55.089Z,17.70
2017-07-16T21:09:23.329Z,17.70
2017-07-16T21:11:50.820Z,17.70
2017-07-16T21:14:19.077Z,17.60
2017-07-16T21:16:46.601Z,17.60
2017-07-16T21:19:14.087Z,17.60
2017-07-16T21:21:42.374Z,17.60
2017-07-16T21:24:09.869Z,17.50
2017-07-16T21:26:37.346Z,17.50
2017-07-16T21:29:04.899Z,17.40
2017-07-16T21:31:33.849Z,17.40
2017-07-16T21:34:01.366Z,17.30
2017-07-16T21:36:28.862Z,17.20
2017-07-16T21:38:56.394Z,17.20
2017-07-16T21:41:23.891Z,17.10
2017-07-16T21:43:51.398Z,17.10
2017-07-16T21:46:18.901Z,17.00
2017-07-16T21:48:47.803Z,17.00
2017-07-16T21:51:16.083Z,16.80
2017-07-16T21:53:43.554Z,16.80
2017-07-16T21:56:11.893Z,16.80
2017-07-16T21:58:39.373Z,16.80
2017-07-16T22:01:07.637Z,16.70
2017-07-16T22:03:35.189Z,16.70
2017-07-16T22:06:03.473Z,16.70
2017-07-16T22:08:30.974Z,16.70
2017-07-16T22:10:58.450Z,16.70
2017-07-16T22:13:25.952Z,16.70
2017-07-16T22:15:53.428Z,16.70
2017-07-16T22:18:21.694Z,16.60
2017-07-16T22:20:49.172Z,16.60
2017-07-16T22:23:16.670Z,16.60
2017-07-16T22:25:44.178Z,16.60
2017-07-16T22:28:12.425Z,16.60
2017-07-16T22:30:39.933Z,16.50
2017-07-16T22:33:07.415Z,16.50
2017-07-16T22:35:34.893Z,16.50
2017-07-16T22:38:02.403Z,16.40
2017-07-16T22:40:29.906Z,16.40
2017-07-16T22:42:57.385Z,16.40
2017-07-16T22:45:24.878Z,16.30
2017-07-16T22:47:52.378Z,16.20
2017-07-16T22:50:19.854Z,16.10
2017-07-16T22:52:47.361Z,16.10
2017-07-16T22:55:14.843Z,16.10
2017-07-16T22:57:42.361Z,16.10
2017-07-16T23:00:10.633Z,16.00
2017-07-16T23:02:38.872Z,15.90
2017-07-16T23:05:06.388Z,15.90
2017-07-16T23:07:33.880Z,15.90
2017-07-16T23:10:01.361Z,15.90
2017-07-16T23:12:28.876Z,15.90
2017-07-16T23:14:56.358Z,15.80
2017-07-16T23:17:23.857Z,15.90
2017-07-16T23:19:52.138Z,15.80
2017-07-16T23:22:19.620Z,15.80
2017-07-16T23:24:48.482Z,15.80
2017-07-16T23:27:15.977Z,15.80
2017-07-16T23:29:43.461Z,15.70
2017-07-16T23:32:10.960Z,15.60
2017-07-16T23:34:39.202Z,15.60
2017-07-16T23:37:06.739Z,15.60
2017-07-16T23:39:34.221Z,15.60
2017-07-16T23:42:01.717Z,15.60
2017-07-16T23:44:29.961Z,15.50
2017-07-16T23:46:57.487Z,15.40
2017-07-16T23:49:24.987Z,15.40
2017-07-16T23:51:52.513Z,15.40
2017-07-16T23:54:19.993Z,15.40
2017-07-16T23:56:47.535Z,15.40
2017-07-16T23:59:15.046Z,15.40
